北京 の空港の天気 - METARとTAF

北京首都国際空港 ( ZBAA / PEK ) - 中国 北京市
飛行場実況気象(Metar)
観測時間07/16 14:30 CST (07/16 06:30 UTC)
風向・風速北 3m/s
視程10km以上
天気現象
なし
気温29℃
湿度84%
気圧1003hPa
METARZBAA 160630Z 36003MPS 330V050 CAVOK 29/26 Q1003 NOSIG
過去の天気等 Google飛行場航空写真 Wunderground天気予報

過去48時間のMETAR

飛行場予報(TAF)
発表時間: 7/16 11:20 CST (7/16 03:20 UTC)
予報対象時間: 16日14時 CST ~ 17日14時 CST
風向・風速南東 4m/s
視程6000m
なし
16日18時 CST ~ 16日24時 CST に一時的に
天気現象弱い雷雨
少しの積乱雲 雲底高度 1220m
17日4時 CST ~ 17日10時 CST に一時的に
天気現象弱い雷雨
少しの積乱雲 雲底高度 1220m
TAF ZBAA 160320Z 1606/1706 14004MPS 6000 NSC TX30/1607Z TN22/1621Z
TEMPO 1610/1616 -TSRA FEW040CB
TEMPO 1620/1702 -TSRA FEW040CB